Página principal
METAR-TAF:

METAR-TAF

Aeroportos :

Aeroporto Internacional de Djerba-Zarzis

Djerba, Tunísia

latitude: 33-52N, longitude: 010-46E, altura: 3 m

Observação actual do tempo

O boletim foi feito há 28 minutos, às 13:30 UTC
Vento 4 kt de norte, variando entre noroeste e es-nordeste
Temperatura 30°C
Humidade 49%
Pressão 1018 hPa
Visibilidade 10 km ou mais
Poucas nuvensa uma altura de 2300 ft

METAR: DTTJ 241330Z 01004KT 320V070 9999 FEW023 30/18 Q1018 NOSIG

Hora: 14:58 (13:58 UTC)

Previsão

O boletim foi feito há 2 horas e 58 minutos, às 11:00 UTC
Previsão válida de 24 às 12 UTC a 25 às 12 UTC
Vento 8 kt de norte
Visibilidade 10 km ou mais
sem nuvens abaixo de 1500 metros e sem cumulonimbus
Tornando-se
de 24 às 14 UTC a 24 às 16 UTC
Vento 10 kt de este
Visibilidade 10 km ou mais
Poucas nuvensa uma altura de 2000 ft
Tornando-se
de 25 às 03 UTC a 25 às 05 UTC
Vento 10 kt de nor-nordeste

TAF: DTTJ 241100Z 2412/2512 36008KT CAVOK BECMG 2414/2416 10010KT 9999 FEW020 BECMG 2503/2505 03010KT

Observações e previsões do tempo de mais de 4000 aeroportos (mensagens METAR e TAF).

As estações disponíveis são os pontos amarelos e vermelhos sobre o mapa.

Mova o rato sobre o mapa para ver o nome da estação.

Depois clique no ponto para visualizar as observações e previsões meteorológicas.

Para alterar o mapa : clique nos botões verdes com uma cruz preta para aumentar o zoom; no botão verde com uma pitada de zoom; ou nas setas verdes para mapas adjacentes.


METAR-TAF: